sensor_id;sensor_type;location;lat;lon;timestamp;pressure;altitude;pressure_sealevel;temperature;humidity
48872;BME280;36154;51.674;7.824;2023-12-14T00:02:24;99861.66;;;20.70;52.89
48872;BME280;36154;51.674;7.824;2023-12-14T00:04:49;99861.66;;;20.70;52.84
48872;BME280;36154;51.674;7.824;2023-12-14T00:07:14;99861.66;;;20.70;52.93
48872;BME280;36154;51.674;7.824;2023-12-14T00:09:40;99871.13;;;20.71;53.07
48872;BME280;36154;51.674;7.824;2023-12-14T00:12:06;99875.53;;;20.68;52.87
48872;BME280;36154;51.674;7.824;2023-12-14T00:14:31;99881.53;;;20.69;52.97
48872;BME280;36154;51.674;7.824;2023-12-14T00:16:56;99887.53;;;20.70;52.84
48872;BME280;36154;51.674;7.824;2023-12-14T00:19:24;99897.91;;;20.70;52.96
48872;BME280;36154;51.674;7.824;2023-12-14T00:21:49;99897.91;;;20.70;52.79
48872;BME280;36154;51.674;7.824;2023-12-14T00:24:14;99902.19;;;20.71;52.96
48872;BME280;36154;51.674;7.824;2023-12-14T00:26:40;99903.06;;;20.70;52.95
48872;BME280;36154;51.674;7.824;2023-12-14T00:29:05;99903.91;;;20.70;52.94
48872;BME280;36154;51.674;7.824;2023-12-14T00:31:30;99905.66;;;20.70;52.83
48872;BME280;36154;51.674;7.824;2023-12-14T00:33:55;99908.25;;;20.70;53.04
48872;BME280;36154;51.674;7.824;2023-12-14T00:36:21;99918.59;;;20.70;52.85
48872;BME280;36154;51.674;7.824;2023-12-14T00:38:46;99922.03;;;20.70;52.95
48872;BME280;36154;51.674;7.824;2023-12-14T00:41:11;99935.84;;;20.71;52.87
48872;BME280;36154;51.674;7.824;2023-12-14T00:43:36;99941.00;;;20.71;52.89
48872;BME280;36154;51.674;7.824;2023-12-14T00:46:03;99938.41;;;20.71;53.01
48872;BME280;36154;51.674;7.824;2023-12-14T00:48:28;99946.19;;;20.71;53.01
48872;BME280;36154;51.674;7.824;2023-12-14T00:50:53;99952.19;;;20.71;52.83
48872;BME280;36154;51.674;7.824;2023-12-14T00:53:19;99942.72;;;20.70;52.84
48872;BME280;36154;51.674;7.824;2023-12-14T00:55:44;99944.50;;;20.70;52.93
48872;BME280;36154;51.674;7.824;2023-12-14T00:58:11;99960.03;;;20.70;52.92
48872;BME280;36154;51.674;7.824;2023-12-14T01:00:38;99954.78;;;20.71;52.92
48872;BME280;36154;51.674;7.824;2023-12-14T01:03:03;99956.53;;;20.71;52.84
48872;BME280;36154;51.674;7.824;2023-12-14T01:05:28;99966.91;;;20.71;52.69
48872;BME280;36154;51.674;7.824;2023-12-14T01:07:54;99966.91;;;20.71;52.84
48872;BME280;36154;51.674;7.824;2023-12-14T01:10:19;99972.06;;;20.71;52.93
48872;BME280;36154;51.674;7.824;2023-12-14T01:12:44;99978.91;;;20.72;52.87
48872;BME280;36154;51.674;7.824;2023-12-14T01:15:10;99979.84;;;20.71;52.86
48872;BME280;36154;51.674;7.824;2023-12-14T01:17:35;99987.59;;;20.71;52.56
48872;BME280;36154;51.674;7.824;2023-12-14T01:20:11;99986.75;;;20.70;52.98
48872;BME280;36154;51.674;7.824;2023-12-14T01:22:36;99990.19;;;20.71;52.87
48872;BME280;36154;51.674;7.824;2023-12-14T01:25:02;100001.38;;;20.71;52.87
48872;BME280;36154;51.674;7.824;2023-12-14T01:27:27;100003.13;;;20.71;52.96
48872;BME280;36154;51.674;7.824;2023-12-14T01:29:52;100003.13;;;20.71;52.86
48872;BME280;36154;51.674;7.824;2023-12-14T01:32:18;100008.31;;;20.71;52.86
48872;BME280;36154;51.674;7.824;2023-12-14T01:34:44;100019.56;;;20.70;53.00
48872;BME280;36154;51.674;7.824;2023-12-14T01:37:09;100026.44;;;20.71;52.83
48872;BME280;36154;51.674;7.824;2023-12-14T01:39:34;100029.91;;;20.70;52.86
48872;BME280;36154;51.674;7.824;2023-12-14T01:42:00;100041.97;;;20.71;52.98
48872;BME280;36154;51.674;7.824;2023-12-14T01:44:25;100041.97;;;20.71;52.80
48872;BME280;36154;51.674;7.824;2023-12-14T01:46:50;100046.22;;;20.72;52.90
48872;BME280;36154;51.674;7.824;2023-12-14T01:49:15;100048.88;;;20.70;52.87
48872;BME280;36154;51.674;7.824;2023-12-14T01:51:41;100057.50;;;20.71;52.81
48872;BME280;36154;51.674;7.824;2023-12-14T01:54:06;100062.66;;;20.71;52.80
48872;BME280;36154;51.674;7.824;2023-12-14T01:56:31;100070.44;;;20.71;53.01
48872;BME280;36154;51.674;7.824;2023-12-14T01:58:56;100070.44;;;20.71;52.73
48872;BME280;36154;51.674;7.824;2023-12-14T02:01:28;100072.16;;;20.70;52.85
48872;BME280;36154;51.674;7.824;2023-12-14T02:03:56;100085.97;;;20.71;52.48
48872;BME280;36154;51.674;7.824;2023-12-14T02:06:21;100084.28;;;20.70;52.91
48872;BME280;36154;51.674;7.824;2023-12-14T02:08:47;100091.16;;;20.71;52.83
48872;BME280;36154;51.674;7.824;2023-12-14T02:11:12;100096.31;;;20.71;52.80
48872;BME280;36154;51.674;7.824;2023-12-14T02:13:37;100101.50;;;20.71;53.03
48872;BME280;36154;51.674;7.824;2023-12-14T02:16:03;100101.50;;;20.71;52.91
48872;BME280;36154;51.674;7.824;2023-12-14T02:18:28;100103.16;;;20.72;52.87
48872;BME280;36154;51.674;7.824;2023-12-14T02:20:54;100100.63;;;20.70;52.81
48872;BME280;36154;51.674;7.824;2023-12-14T02:23:19;100104.09;;;20.71;52.79
48872;BME280;36154;51.674;7.824;2023-12-14T02:25:44;100106.69;;;20.71;52.76
48872;BME280;36154;51.674;7.824;2023-12-14T02:28:09;100119.63;;;20.71;52.81
48872;BME280;36154;51.674;7.824;2023-12-14T02:30:35;100124.81;;;20.71;52.83
48872;BME280;36154;51.674;7.824;2023-12-14T02:33:00;100132.56;;;20.71;52.70
48872;BME280;36154;51.674;7.824;2023-12-14T02:35:25;100142.91;;;20.71;52.70
48872;BME280;36154;51.674;7.824;2023-12-14T02:37:50;100147.22;;;20.70;52.73
48872;BME280;36154;51.674;7.824;2023-12-14T02:40:16;100157.59;;;20.70;52.76
48872;BME280;36154;51.674;7.824;2023-12-14T02:42:42;100161.94;;;20.70;52.69
48872;BME280;36154;51.674;7.824;2023-12-14T02:45:07;100161.03;;;20.71;52.71
48872;BME280;36154;51.674;7.824;2023-12-14T02:47:33;100159.34;;;20.70;52.92
48872;BME280;36154;51.674;7.824;2023-12-14T02:49:58;100172.28;;;20.70;52.91
48872;BME280;36154;51.674;7.824;2023-12-14T02:52:24;100166.22;;;20.71;52.71
48872;BME280;36154;51.674;7.824;2023-12-14T02:54:49;100167.09;;;20.70;52.61
48872;BME280;36154;51.674;7.824;2023-12-14T02:57:14;100181.75;;;20.71;52.65
48872;BME280;36154;51.674;7.824;2023-12-14T02:59:39;100175.69;;;20.70;52.78
48872;BME280;36154;51.674;7.824;2023-12-14T03:02:05;100172.28;;;20.70;52.69
48872;BME280;36154;51.674;7.824;2023-12-14T03:04:31;100176.56;;;20.71;52.66
48872;BME280;36154;51.674;7.824;2023-12-14T03:06:56;100181.75;;;20.71;52.63
48872;BME280;36154;51.674;7.824;2023-12-14T03:09:22;100182.63;;;20.70;52.54
48872;BME280;36154;51.674;7.824;2023-12-14T03:11:47;100183.47;;;20.70;52.63
48872;BME280;36154;51.674;7.824;2023-12-14T03:14:13;100189.50;;;20.71;52.65
48872;BME280;36154;51.674;7.824;2023-12-14T03:16:38;100194.69;;;20.71;52.63
48872;BME280;36154;51.674;7.824;2023-12-14T03:19:03;100194.69;;;20.71;52.60
48872;BME280;36154;51.674;7.824;2023-12-14T03:21:29;100199.00;;;20.70;52.60
48872;BME280;36154;51.674;7.824;2023-12-14T03:23:54;100203.34;;;20.70;52.53
48872;BME280;36154;51.674;7.824;2023-12-14T03:26:20;100203.34;;;20.70;52.86
48872;BME280;36154;51.674;7.824;2023-12-14T03:28:45;100205.09;;;20.69;52.56
48872;BME280;36154;51.674;7.824;2023-12-14T03:31:11;100211.06;;;20.71;52.64
48872;BME280;36154;51.674;7.824;2023-12-14T03:33:37;100219.72;;;20.70;52.62
48872;BME280;36154;51.674;7.824;2023-12-14T03:36:03;100218.88;;;20.70;52.59
48872;BME280;36154;51.674;7.824;2023-12-14T03:38:28;100218.88;;;20.70;52.55
48872;BME280;36154;51.674;7.824;2023-12-14T03:40:53;100234.41;;;20.70;52.57
48872;BME280;36154;51.674;7.824;2023-12-14T03:43:19;100240.41;;;20.70;52.50
48872;BME280;36154;51.674;7.824;2023-12-14T03:45:44;100233.53;;;20.71;52.60
48872;BME280;36154;51.674;7.824;2023-12-14T03:48:10;100248.19;;;20.70;52.43
48872;BME280;36154;51.674;7.824;2023-12-14T03:50:35;100256.81;;;20.71;52.57
48872;BME280;36154;51.674;7.824;2023-12-14T03:53:00;100260.28;;;20.70;52.63
48872;BME280;36154;51.674;7.824;2023-12-14T03:55:25;100261.13;;;20.70;52.43
48872;BME280;36154;51.674;7.824;2023-12-14T03:57:51;100268.06;;;20.70;52.54
48872;BME280;36154;51.674;7.824;2023-12-14T04:00:16;100270.66;;;20.70;52.64
48872;BME280;36154;51.674;7.824;2023-12-14T04:02:42;100275.81;;;20.70;52.49
48872;BME280;36154;51.674;7.824;2023-12-14T04:05:08;100272.41;;;20.69;52.42
48872;BME280;36154;51.674;7.824;2023-12-14T04:07:36;100284.50;;;20.68;52.55
48872;BME280;36154;51.674;7.824;2023-12-14T04:10:01;100288.78;;;20.70;52.50
48872;BME280;36154;51.674;7.824;2023-12-14T04:12:26;100295.69;;;20.69;52.29
48872;BME280;36154;51.674;7.824;2023-12-14T04:14:52;100302.56;;;20.70;52.43
48872;BME280;36154;51.674;7.824;2023-12-14T04:17:17;100309.47;;;20.70;52.48
48872;BME280;36154;51.674;7.824;2023-12-14T04:19:42;100309.47;;;20.70;52.33
48872;BME280;36154;51.674;7.824;2023-12-14T04:22:08;100316.41;;;20.69;52.32
48872;BME280;36154;51.674;7.824;2023-12-14T04:24:33;100326.75;;;20.69;52.46
48872;BME280;36154;51.674;7.824;2023-12-14T04:26:59;100324.19;;;20.69;52.41
48872;BME280;36154;51.674;7.824;2023-12-14T04:29:24;100326.75;;;20.69;52.35
48872;BME280;36154;51.674;7.824;2023-12-14T04:31:49;100332.78;;;20.70;52.43
48872;BME280;36154;51.674;7.824;2023-12-14T04:34:14;100335.38;;;20.70;52.32
48872;BME280;36154;51.674;7.824;2023-12-14T04:36:45;100333.69;;;20.68;52.42
48872;BME280;36154;51.674;7.824;2023-12-14T04:39:10;100346.63;;;20.68;52.35
48872;BME280;36154;51.674;7.824;2023-12-14T04:41:36;100351.81;;;20.68;52.33
48872;BME280;36154;51.674;7.824;2023-12-14T04:44:01;100351.81;;;20.68;52.33
48872;BME280;36154;51.674;7.824;2023-12-14T04:46:26;100349.22;;;20.68;52.30
48872;BME280;36154;51.674;7.824;2023-12-14T04:48:52;100357.81;;;20.69;52.57
48872;BME280;36154;51.674;7.824;2023-12-14T04:51:17;100367.34;;;20.68;52.63
48872;BME280;36154;51.674;7.824;2023-12-14T04:53:42;100366.47;;;20.68;52.32
48872;BME280;36154;51.674;7.824;2023-12-14T04:56:11;100377.69;;;20.68;52.49
48872;BME280;36154;51.674;7.824;2023-12-14T04:58:40;100381.06;;;20.71;52.40
48872;BME280;36154;51.674;7.824;2023-12-14T05:01:06;100374.19;;;20.70;52.50
48872;BME280;36154;51.674;7.824;2023-12-14T05:03:31;100379.38;;;20.70;52.35
48872;BME280;36154;51.674;7.824;2023-12-14T05:05:57;100383.66;;;20.71;52.41
48872;BME280;36154;51.674;7.824;2023-12-14T05:08:22;100385.38;;;20.70;52.35
48872;BME280;36154;51.674;7.824;2023-12-14T05:10:47;100381.97;;;20.70;52.29
48872;BME280;36154;51.674;7.824;2023-12-14T05:13:13;100384.56;;;20.70;52.39
48872;BME280;36154;51.674;7.824;2023-12-14T05:15:38;100389.72;;;20.70;52.35
48872;BME280;36154;51.674;7.824;2023-12-14T05:18:03;100405.25;;;20.70;52.21
48872;BME280;36154;51.674;7.824;2023-12-14T05:20:29;100398.41;;;20.68;52.12
48872;BME280;36154;51.674;7.824;2023-12-14T05:22:54;100400.09;;;20.70;52.13
48872;BME280;36154;51.674;7.824;2023-12-14T05:25:20;100400.91;;;20.70;52.27
48872;BME280;36154;51.674;7.824;2023-12-14T05:27:45;100414.78;;;20.69;52.35
48872;BME280;36154;51.674;7.824;2023-12-14T05:30:10;100416.53;;;20.68;52.27
48872;BME280;36154;51.674;7.824;2023-12-14T05:32:36;100425.13;;;20.69;52.34
48872;BME280;36154;51.674;7.824;2023-12-14T05:35:01;100420.78;;;20.70;52.25
48872;BME280;36154;51.674;7.824;2023-12-14T05:37:26;100431.16;;;20.70;52.33
48872;BME280;36154;51.674;7.824;2023-12-14T05:39:52;100436.31;;;20.70;52.21
48872;BME280;36154;51.674;7.824;2023-12-14T05:42:17;100432.84;;;20.71;52.05
48872;BME280;36154;51.674;7.824;2023-12-14T05:44:43;100435.44;;;20.71;52.09
48872;BME280;36154;51.674;7.824;2023-12-14T05:47:10;100443.22;;;20.71;52.11
48872;BME280;36154;51.674;7.824;2023-12-14T05:49:35;100447.53;;;20.70;52.11
48872;BME280;36154;51.674;7.824;2023-12-14T05:52:00;100445.81;;;20.71;52.12
48872;BME280;36154;51.674;7.824;2023-12-14T05:54:26;100452.69;;;20.70;52.09
48872;BME280;36154;51.674;7.824;2023-12-14T05:56:51;100456.16;;;20.71;52.08
48872;BME280;36154;51.674;7.824;2023-12-14T05:59:16;100454.41;;;20.71;52.03
48872;BME280;36154;51.674;7.824;2023-12-14T06:01:42;100451.88;;;20.70;52.09
48872;BME280;36154;51.674;7.824;2023-12-14T06:04:08;100457.03;;;20.70;52.01
48872;BME280;36154;51.674;7.824;2023-12-14T06:06:33;100463.06;;;20.70;52.05
48872;BME280;36154;51.674;7.824;2023-12-14T06:08:58;100467.41;;;20.70;52.09
48872;BME280;36154;51.674;7.824;2023-12-14T06:11:24;100462.22;;;20.70;52.03
48872;BME280;36154;51.674;7.824;2023-12-14T06:13:49;100467.41;;;20.70;52.00
48872;BME280;36154;51.674;7.824;2023-12-14T06:16:14;100468.22;;;20.70;52.04
48872;BME280;36154;51.674;7.824;2023-12-14T06:18:40;100472.56;;;20.70;51.86
48872;BME280;36154;51.674;7.824;2023-12-14T06:21:08;100478.66;;;20.68;51.88
48872;BME280;36154;51.674;7.824;2023-12-14T06:23:36;100482.94;;;20.70;51.86
48872;BME280;36154;51.674;7.824;2023-12-14T06:26:02;100487.28;;;20.69;52.04
48872;BME280;36154;51.674;7.824;2023-12-14T06:28:29;100501.97;;;20.68;48.39
48872;BME280;36154;51.674;7.824;2023-12-14T06:30:55;100502.25;;;20.59;43.91
48872;BME280;36154;51.674;7.824;2023-12-14T06:33:21;100507.94;;;20.41;41.77
48872;BME280;36154;51.674;7.824;2023-12-14T06:35:46;100507.75;;;20.19;41.31
48872;BME280;36154;51.674;7.824;2023-12-14T06:38:11;100518.53;;;20.03;40.86
48872;BME280;36154;51.674;7.824;2023-12-14T06:40:37;100520.66;;;19.89;41.10
48872;BME280;36154;51.674;7.824;2023-12-14T06:43:04;100525.16;;;19.82;42.30
48872;BME280;36154;51.674;7.824;2023-12-14T06:45:30;100531.25;;;19.80;43.50
48872;BME280;36154;51.674;7.824;2023-12-14T06:47:55;100530.31;;;19.82;45.12
48872;BME280;36154;51.674;7.824;2023-12-14T06:50:20;100536.22;;;19.87;45.81
48872;BME280;36154;51.674;7.824;2023-12-14T06:52:46;100543.81;;;19.93;46.77
48872;BME280;36154;51.674;7.824;2023-12-14T06:55:11;100547.88;;;20.02;46.85
48872;BME280;36154;51.674;7.824;2023-12-14T06:57:36;100550.28;;;20.08;46.69
48872;BME280;36154;51.674;7.824;2023-12-14T07:00:02;100560.41;;;20.16;47.52
48872;BME280;36154;51.674;7.824;2023-12-14T07:02:28;100564.53;;;20.23;47.81
48872;BME280;36154;51.674;7.824;2023-12-14T07:04:53;100573.00;;;20.28;47.90
48872;BME280;36154;51.674;7.824;2023-12-14T07:07:18;100579.69;;;20.36;48.30
48872;BME280;36154;51.674;7.824;2023-12-14T07:09:43;100581.25;;;20.41;48.16
48872;BME280;36154;51.674;7.824;2023-12-14T07:12:11;100585.44;;;20.47;48.22
48872;BME280;36154;51.674;7.824;2023-12-14T07:14:36;100587.88;;;20.52;48.08
48872;BME280;36154;51.674;7.824;2023-12-14T07:17:02;100598.06;;;20.58;48.32
48872;BME280;36154;51.674;7.824;2023-12-14T07:19:27;100604.84;;;20.62;48.33
48872;BME280;36154;51.674;7.824;2023-12-14T07:21:52;100614.22;;;20.66;48.64
48872;BME280;36154;51.674;7.824;2023-12-14T07:24:18;100614.06;;;20.71;48.57
48872;BME280;36154;51.674;7.824;2023-12-14T07:26:43;100624.31;;;20.75;48.60
48872;BME280;36154;51.674;7.824;2023-12-14T07:29:08;100625.94;;;20.78;48.56
48872;BME280;36154;51.674;7.824;2023-12-14T07:31:34;100633.63;;;20.81;48.43
48872;BME280;36154;51.674;7.824;2023-12-14T07:33:59;100635.22;;;20.85;48.54
48872;BME280;36154;51.674;7.824;2023-12-14T07:36:24;100644.69;;;20.86;48.60
48872;BME280;36154;51.674;7.824;2023-12-14T07:38:50;100642.88;;;20.88;48.60
48872;BME280;36154;51.674;7.824;2023-12-14T07:41:15;100661.81;;;20.90;48.63
48872;BME280;36154;51.674;7.824;2023-12-14T07:43:40;100652.28;;;20.92;48.67
48872;BME280;36154;51.674;7.824;2023-12-14T07:46:05;100656.56;;;20.93;48.59
48872;BME280;36154;51.674;7.824;2023-12-14T07:48:31;100659.94;;;20.95;48.61
48872;BME280;36154;51.674;7.824;2023-12-14T07:50:56;100663.34;;;20.97;48.59
48872;BME280;36154;51.674;7.824;2023-12-14T07:53:21;100668.53;;;20.97;48.61
48872;BME280;36154;51.674;7.824;2023-12-14T07:55:46;100669.38;;;20.98;48.64
48872;BME280;36154;51.674;7.824;2023-12-14T07:58:12;100681.44;;;20.99;48.66
48872;BME280;36154;51.674;7.824;2023-12-14T08:00:38;100696.09;;;20.98;48.73
48872;BME280;36154;51.674;7.824;2023-12-14T08:03:03;100703.00;;;20.99;48.79
48872;BME280;36154;51.674;7.824;2023-12-14T08:05:28;100708.19;;;20.99;48.75
48872;BME280;36154;51.674;7.824;2023-12-14T08:07:54;100709.06;;;20.98;48.79
48872;BME280;36154;51.674;7.824;2023-12-14T08:10:19;100711.66;;;20.98;48.80
48872;BME280;36154;51.674;7.824;2023-12-14T08:12:44;100719.47;;;20.97;48.86
48872;BME280;36154;51.674;7.824;2023-12-14T08:15:10;100728.97;;;20.96;48.68
48872;BME280;36154;51.674;7.824;2023-12-14T08:17:35;100727.28;;;20.95;48.84
48872;BME280;36154;51.674;7.824;2023-12-14T08:20:01;100740.28;;;20.94;48.97
48872;BME280;36154;51.674;7.824;2023-12-14T08:22:26;100748.94;;;20.93;48.95
48872;BME280;36154;51.674;7.824;2023-12-14T08:24:51;100750.69;;;20.92;48.98
48872;BME280;36154;51.674;7.824;2023-12-14T08:27:16;100749.88;;;20.90;49.03
48872;BME280;36154;51.674;7.824;2023-12-14T08:29:42;100751.66;;;20.88;49.07
48872;BME280;36154;51.674;7.824;2023-12-14T08:32:08;100755.97;;;20.89;48.94
48872;BME280;36154;51.674;7.824;2023-12-14T08:34:33;100755.16;;;20.87;49.04
48872;BME280;36154;51.674;7.824;2023-12-14T08:37:00;100751.75;;;20.85;49.14
48872;BME280;36154;51.674;7.824;2023-12-14T08:39:25;100762.13;;;20.83;49.08
48872;BME280;36154;51.674;7.824;2023-12-14T08:41:51;100762.19;;;20.82;49.23
48872;BME280;36154;51.674;7.824;2023-12-14T08:44:17;100764.84;;;20.80;49.24
48872;BME280;36154;51.674;7.824;2023-12-14T08:46:44;100764.88;;;20.79;49.30
48872;BME280;36154;51.674;7.824;2023-12-14T08:49:10;100770.94;;;20.78;49.28
48872;BME280;36154;51.674;7.824;2023-12-14T08:51:35;100773.56;;;20.76;49.32
48872;BME280;36154;51.674;7.824;2023-12-14T08:54:01;100781.38;;;20.75;49.22
48872;BME280;36154;51.674;7.824;2023-12-14T08:56:26;100784.00;;;20.73;49.38
48872;BME280;36154;51.674;7.824;2023-12-14T08:58:51;100793.53;;;20.73;49.37
48872;BME280;36154;51.674;7.824;2023-12-14T09:01:21;100801.34;;;20.71;49.39
48872;BME280;36154;51.674;7.824;2023-12-14T09:03:47;100805.66;;;20.71;49.44
48872;BME280;36154;51.674;7.824;2023-12-14T09:06:13;100803.97;;;20.70;49.48
48872;BME280;36154;51.674;7.824;2023-12-14T09:08:39;100815.22;;;20.68;49.48
48872;BME280;36154;51.674;7.824;2023-12-14T09:11:05;100823.88;;;20.67;49.72
48872;BME280;36154;51.674;7.824;2023-12-14T09:13:30;100825.63;;;20.67;49.62
48872;BME280;36154;51.674;7.824;2023-12-14T09:15:55;100830.78;;;20.67;49.49
48872;BME280;36154;51.674;7.824;2023-12-14T09:18:21;100832.50;;;20.66;49.42
48872;BME280;36154;51.674;7.824;2023-12-14T09:20:48;100844.63;;;20.66;49.52
48872;BME280;36154;51.674;7.824;2023-12-14T09:23:14;100838.59;;;20.65;49.55
48872;BME280;36154;51.674;7.824;2023-12-14T09:25:40;100843.78;;;20.65;49.74
48872;BME280;36154;51.674;7.824;2023-12-14T09:28:05;100858.44;;;20.65;49.42
48872;BME280;36154;51.674;7.824;2023-12-14T09:30:30;100855.88;;;20.63;49.56
48872;BME280;36154;51.674;7.824;2023-12-14T09:32:55;100857.59;;;20.64;49.56
48872;BME280;36154;51.674;7.824;2023-12-14T09:35:21;100862.78;;;20.64;49.83
48872;BME280;36154;51.674;7.824;2023-12-14T09:37:46;100868.78;;;20.65;49.71
48872;BME280;36154;51.674;7.824;2023-12-14T09:40:11;100878.31;;;20.64;49.63
48872;BME280;36154;51.674;7.824;2023-12-14T09:42:38;100878.31;;;20.64;49.43
48872;BME280;36154;51.674;7.824;2023-12-14T09:45:08;100880.94;;;20.63;49.53
48872;BME280;36154;51.674;7.824;2023-12-14T09:47:35;100886.13;;;20.63;49.59
48872;BME280;36154;51.674;7.824;2023-12-14T09:50:01;100888.69;;;20.63;49.56
48872;BME280;36154;51.674;7.824;2023-12-14T09:52:28;100893.88;;;20.63;49.51
48872;BME280;36154;51.674;7.824;2023-12-14T09:54:53;100899.91;;;20.63;49.49
48872;BME280;36154;51.674;7.824;2023-12-14T09:57:19;100905.06;;;20.63;49.40
48872;BME280;36154;51.674;7.824;2023-12-14T09:59:51;100908.56;;;20.62;49.55
48872;BME280;36154;51.674;7.824;2023-12-14T10:02:17;100904.25;;;20.63;49.51
48872;BME280;36154;51.674;7.824;2023-12-14T10:04:46;100911.16;;;20.62;49.42
48872;BME280;36154;51.674;7.824;2023-12-14T10:07:12;100912.00;;;20.63;49.43
48872;BME280;36154;51.674;7.824;2023-12-14T10:09:37;100911.16;;;20.62;49.11
48872;BME280;36154;51.674;7.824;2023-12-14T10:12:08;100909.44;;;20.61;49.35
48872;BME280;36154;51.674;7.824;2023-12-14T10:14:34;100919.81;;;20.61;49.44
48872;BME280;36154;51.674;7.824;2023-12-14T10:17:20;100924.16;;;20.61;49.50
48872;BME280;36154;51.674;7.824;2023-12-14T10:19:46;100933.66;;;20.60;49.47
48872;BME280;36154;51.674;7.824;2023-12-14T10:22:16;100933.66;;;20.60;49.30
48872;BME280;36154;51.674;7.824;2023-12-14T10:24:43;100942.25;;;20.61;49.38
48872;BME280;36154;51.674;7.824;2023-12-14T10:27:09;100950.88;;;20.61;49.48
48872;BME280;36154;51.674;7.824;2023-12-14T10:29:39;100951.78;;;20.60;49.52
48872;BME280;36154;51.674;7.824;2023-12-14T10:32:05;100950.03;;;20.61;49.45
48872;BME280;36154;51.674;7.824;2023-12-14T10:34:35;100950.03;;;20.61;49.42
48872;BME280;36154;51.674;7.824;2023-12-14T10:37:01;100948.28;;;20.61;49.45
48872;BME280;36154;51.674;7.824;2023-12-14T10:39:27;100952.59;;;20.62;49.38
48872;BME280;36154;51.674;7.824;2023-12-14T10:41:55;100956.91;;;20.62;49.38
48872;BME280;36154;51.674;7.824;2023-12-14T10:44:25;100966.41;;;20.61;49.43
48872;BME280;36154;51.674;7.824;2023-12-14T10:46:54;100967.28;;;20.62;49.36
48872;BME280;36154;51.674;7.824;2023-12-14T10:49:23;100978.47;;;20.62;49.47
48872;BME280;36154;51.674;7.824;2023-12-14T10:51:49;100976.75;;;20.61;49.35
48872;BME280;36154;51.674;7.824;2023-12-14T10:54:15;100981.09;;;20.61;49.39
48872;BME280;36154;51.674;7.824;2023-12-14T10:56:41;100969.91;;;20.60;49.34
48872;BME280;36154;51.674;7.824;2023-12-14T10:59:07;100981.94;;;20.61;49.39
48872;BME280;36154;51.674;7.824;2023-12-14T11:01:32;100973.34;;;20.61;49.47
48872;BME280;36154;51.674;7.824;2023-12-14T11:03:59;100975.03;;;20.62;49.36
48872;BME280;36154;51.674;7.824;2023-12-14T11:08:52;100989.69;;;20.61;49.36
48872;BME280;36154;51.674;7.824;2023-12-14T11:11:20;100995.75;;;20.62;49.31
48872;BME280;36154;51.674;7.824;2023-12-14T11:13:52;100988.03;;;20.60;49.21
48872;BME280;36154;51.674;7.824;2023-12-14T11:16:22;100989.75;;;20.60;49.15
48872;BME280;36154;51.674;7.824;2023-12-14T11:18:48;100997.47;;;20.61;49.22
48872;BME280;36154;51.674;7.824;2023-12-14T11:21:19;101003.53;;;20.62;49.28
48872;BME280;36154;51.674;7.824;2023-12-14T11:23:47;101020.78;;;20.61;49.04
48872;BME280;36154;51.674;7.824;2023-12-14T11:26:20;101020.78;;;20.61;49.35
48872;BME280;36154;51.674;7.824;2023-12-14T11:28:48;101019.06;;;20.62;49.19
48872;BME280;36154;51.674;7.824;2023-12-14T11:31:13;101026.84;;;20.60;49.34
48872;BME280;36154;51.674;7.824;2023-12-14T11:33:39;101037.22;;;20.60;49.25
48872;BME280;36154;51.674;7.824;2023-12-14T11:36:05;101032.03;;;20.60;49.28
48872;BME280;36154;51.674;7.824;2023-12-14T11:38:31;101039.78;;;20.60;49.23
48872;BME280;36154;51.674;7.824;2023-12-14T11:40:58;101037.22;;;20.60;49.28
48872;BME280;36154;51.674;7.824;2023-12-14T11:43:24;101039.81;;;20.59;49.10
48872;BME280;36154;51.674;7.824;2023-12-14T11:45:51;101033.75;;;20.60;49.14
48872;BME280;36154;51.674;7.824;2023-12-14T11:48:17;101044.06;;;20.61;49.21
48872;BME280;36154;51.674;7.824;2023-12-14T11:50:43;101044.06;;;20.61;49.24
48872;BME280;36154;51.674;7.824;2023-12-14T11:53:09;101052.72;;;20.62;49.13
48872;BME280;36154;51.674;7.824;2023-12-14T11:55:37;101053.56;;;20.62;49.07
48872;BME280;36154;51.674;7.824;2023-12-14T11:58:03;101063.91;;;20.62;49.07
48872;BME280;36154;51.674;7.824;2023-12-14T12:00:30;101056.97;;;20.63;49.00
48872;BME280;36154;51.674;7.824;2023-12-14T12:05:50;101057.00;;;20.61;49.00
48872;BME280;36154;51.674;7.824;2023-12-14T12:08:18;101061.34;;;20.61;49.15
48872;BME280;36154;51.674;7.824;2023-12-14T12:10:47;101053.59;;;20.61;49.04
48872;BME280;36154;51.674;7.824;2023-12-14T12:13:14;101057.91;;;20.60;48.96
48872;BME280;36154;51.674;7.824;2023-12-14T12:15:40;101062.22;;;20.60;49.06
48872;BME280;36154;51.674;7.824;2023-12-14T12:18:06;101058.78;;;20.59;48.96
48872;BME280;36154;51.674;7.824;2023-12-14T12:20:32;101062.22;;;20.60;49.00
48872;BME280;36154;51.674;7.824;2023-12-14T12:22:58;101062.25;;;20.58;49.04
48872;BME280;36154;51.674;7.824;2023-12-14T12:25:23;101057.06;;;20.58;49.00
48872;BME280;36154;51.674;7.824;2023-12-14T12:27:49;101056.19;;;20.59;49.03
48872;BME280;36154;51.674;7.824;2023-12-14T12:30:14;101069.97;;;20.61;48.97
48872;BME280;36154;51.674;7.824;2023-12-14T12:32:40;101063.88;;;20.64;48.84
48872;BME280;36154;51.674;7.824;2023-12-14T12:35:06;101061.25;;;20.65;48.87
48872;BME280;36154;51.674;7.824;2023-12-14T12:37:32;101056.88;;;20.67;49.26
48872;BME280;36154;51.674;7.824;2023-12-14T12:39:57;101057.69;;;20.70;48.83
48872;BME280;36154;51.674;7.824;2023-12-14T12:42:22;101062.84;;;20.71;48.78
48872;BME280;36154;51.674;7.824;2023-12-14T12:44:47;101061.97;;;20.72;48.75
48872;BME280;36154;51.674;7.824;2023-12-14T12:47:13;101052.47;;;20.73;48.66
48872;BME280;36154;51.674;7.824;2023-12-14T12:49:38;101059.34;;;20.74;48.62